sensor_id;sensor_type;location;lat;lon;timestamp;temperature;humidity
19898;DHT22;10111;50.814;4.572;2023-04-30T00:01:03;8.90;99.90
19898;DHT22;10111;50.814;4.572;2023-04-30T00:03:29;8.80;99.90
19898;DHT22;10111;50.814;4.572;2023-04-30T00:05:55;8.80;99.90
19898;DHT22;10111;50.814;4.572;2023-04-30T00:08:20;8.80;99.90
19898;DHT22;10111;50.814;4.572;2023-04-30T00:10:46;8.80;99.90
19898;DHT22;10111;50.814;4.572;2023-04-30T00:13:12;8.80;99.90
19898;DHT22;10111;50.814;4.572;2023-04-30T00:15:38;8.70;99.90
19898;DHT22;10111;50.814;4.572;2023-04-30T00:18:04;8.60;99.90
19898;DHT22;10111;50.814;4.572;2023-04-30T00:20:31;8.60;99.90
19898;DHT22;10111;50.814;4.572;2023-04-30T00:22:59;8.50;99.90
19898;DHT22;10111;50.814;4.572;2023-04-30T00:25:25;8.50;99.90
19898;DHT22;10111;50.814;4.572;2023-04-30T00:27:50;8.50;99.90
19898;DHT22;10111;50.814;4.572;2023-04-30T00:30:16;8.40;99.90
19898;DHT22;10111;50.814;4.572;2023-04-30T00:32:42;8.40;99.90
19898;DHT22;10111;50.814;4.572;2023-04-30T00:35:08;8.40;99.90
19898;DHT22;10111;50.814;4.572;2023-04-30T00:37:33;8.30;99.90
19898;DHT22;10111;50.814;4.572;2023-04-30T00:39:59;8.30;99.90
19898;DHT22;10111;50.814;4.572;2023-04-30T00:42:25;8.20;99.90
19898;DHT22;10111;50.814;4.572;2023-04-30T00:44:50;8.20;99.90
19898;DHT22;10111;50.814;4.572;2023-04-30T00:47:16;8.10;99.90
19898;DHT22;10111;50.814;4.572;2023-04-30T00:49:42;8.10;99.90
19898;DHT22;10111;50.814;4.572;2023-04-30T00:52:08;8.10;99.90
19898;DHT22;10111;50.814;4.572;2023-04-30T00:54:33;8.10;99.90
19898;DHT22;10111;50.814;4.572;2023-04-30T00:56:59;8.00;99.90
19898;DHT22;10111;50.814;4.572;2023-04-30T00:59:25;8.00;99.90
19898;DHT22;10111;50.814;4.572;2023-04-30T01:01:52;8.00;99.90
19898;DHT22;10111;50.814;4.572;2023-04-30T01:04:18;7.90;99.90
19898;DHT22;10111;50.814;4.572;2023-04-30T01:06:44;7.90;99.90
19898;DHT22;10111;50.814;4.572;2023-04-30T01:09:11;7.90;99.90
19898;DHT22;10111;50.814;4.572;2023-04-30T01:19:45;7.90;99.90
19898;DHT22;10111;50.814;4.572;2023-04-30T01:25:20;7.80;99.90
19898;DHT22;10111;50.814;4.572;2023-04-30T01:28:07;7.70;99.90
19898;DHT22;10111;50.814;4.572;2023-04-30T01:30:34;7.70;99.90
19898;DHT22;10111;50.814;4.572;2023-04-30T01:33:01;7.60;99.90
19898;DHT22;10111;50.814;4.572;2023-04-30T01:44:28;7.50;99.90
19898;DHT22;10111;50.814;4.572;2023-04-30T01:47:33;7.50;99.90
19898;DHT22;10111;50.814;4.572;2023-04-30T01:53:12;7.40;99.90
19898;DHT22;10111;50.814;4.572;2023-04-30T01:55:56;7.30;99.90
19898;DHT22;10111;50.814;4.572;2023-04-30T01:58:24;7.40;99.90
19898;DHT22;10111;50.814;4.572;2023-04-30T02:00:50;7.40;99.90
19898;DHT22;10111;50.814;4.572;2023-04-30T02:03:16;7.30;99.90
19898;DHT22;10111;50.814;4.572;2023-04-30T02:05:42;7.30;99.90
19898;DHT22;10111;50.814;4.572;2023-04-30T02:08:08;7.20;99.90
19898;DHT22;10111;50.814;4.572;2023-04-30T02:10:33;7.20;99.90
19898;DHT22;10111;50.814;4.572;2023-04-30T02:12:59;7.10;99.90
19898;DHT22;10111;50.814;4.572;2023-04-30T02:15:25;7.00;99.90
19898;DHT22;10111;50.814;4.572;2023-04-30T02:17:50;7.00;99.90
19898;DHT22;10111;50.814;4.572;2023-04-30T02:20:16;6.90;99.90
19898;DHT22;10111;50.814;4.572;2023-04-30T02:22:42;6.90;99.90
19898;DHT22;10111;50.814;4.572;2023-04-30T02:25:08;6.90;99.90
19898;DHT22;10111;50.814;4.572;2023-04-30T02:27:34;6.80;99.90
19898;DHT22;10111;50.814;4.572;2023-04-30T02:30:00;6.90;99.90
19898;DHT22;10111;50.814;4.572;2023-04-30T02:32:25;6.90;99.90
19898;DHT22;10111;50.814;4.572;2023-04-30T02:34:51;6.90;99.90
19898;DHT22;10111;50.814;4.572;2023-04-30T02:37:17;6.90;99.90
19898;DHT22;10111;50.814;4.572;2023-04-30T02:39:42;6.90;99.90
19898;DHT22;10111;50.814;4.572;2023-04-30T02:42:08;6.80;99.90
19898;DHT22;10111;50.814;4.572;2023-04-30T02:44:34;6.70;99.90
19898;DHT22;10111;50.814;4.572;2023-04-30T02:47:00;6.70;99.90
19898;DHT22;10111;50.814;4.572;2023-04-30T02:49:27;6.70;99.90
19898;DHT22;10111;50.814;4.572;2023-04-30T02:51:53;6.70;99.90
19898;DHT22;10111;50.814;4.572;2023-04-30T02:54:18;6.60;99.90
19898;DHT22;10111;50.814;4.572;2023-04-30T02:56:45;6.60;99.90
19898;DHT22;10111;50.814;4.572;2023-04-30T02:59:11;6.60;99.90
19898;DHT22;10111;50.814;4.572;2023-04-30T03:01:37;6.60;99.90
19898;DHT22;10111;50.814;4.572;2023-04-30T03:04:03;6.70;99.90
19898;DHT22;10111;50.814;4.572;2023-04-30T03:06:29;6.60;99.90
19898;DHT22;10111;50.814;4.572;2023-04-30T03:08:55;6.60;99.90
19898;DHT22;10111;50.814;4.572;2023-04-30T03:11:21;6.60;99.90
19898;DHT22;10111;50.814;4.572;2023-04-30T03:13:47;6.50;99.90
19898;DHT22;10111;50.814;4.572;2023-04-30T03:16:19;6.50;99.90
19898;DHT22;10111;50.814;4.572;2023-04-30T03:18:46;6.50;99.90
19898;DHT22;10111;50.814;4.572;2023-04-30T03:21:12;6.50;99.90
19898;DHT22;10111;50.814;4.572;2023-04-30T03:23:37;6.50;99.90
19898;DHT22;10111;50.814;4.572;2023-04-30T03:26:03;6.40;99.90
19898;DHT22;10111;50.814;4.572;2023-04-30T03:28:29;6.50;99.90
19898;DHT22;10111;50.814;4.572;2023-04-30T03:30:54;6.50;99.90
19898;DHT22;10111;50.814;4.572;2023-04-30T03:33:20;6.40;99.90
19898;DHT22;10111;50.814;4.572;2023-04-30T03:35:46;6.40;99.90
19898;DHT22;10111;50.814;4.572;2023-04-30T03:38:12;6.40;99.90
19898;DHT22;10111;50.814;4.572;2023-04-30T03:40:37;6.30;99.90
19898;DHT22;10111;50.814;4.572;2023-04-30T03:43:03;6.40;99.90
19898;DHT22;10111;50.814;4.572;2023-04-30T03:45:29;6.40;99.90
19898;DHT22;10111;50.814;4.572;2023-04-30T03:47:55;6.30;99.90
19898;DHT22;10111;50.814;4.572;2023-04-30T03:50:21;6.30;99.90
19898;DHT22;10111;50.814;4.572;2023-04-30T03:52:46;6.30;99.90
19898;DHT22;10111;50.814;4.572;2023-04-30T03:55:12;6.50;99.90
19898;DHT22;10111;50.814;4.572;2023-04-30T03:57:38;6.30;99.90
19898;DHT22;10111;50.814;4.572;2023-04-30T04:00:08;6.20;99.90
19898;DHT22;10111;50.814;4.572;2023-04-30T04:02:35;6.20;99.90
19898;DHT22;10111;50.814;4.572;2023-04-30T04:05:02;6.20;99.90
19898;DHT22;10111;50.814;4.572;2023-04-30T04:07:27;6.20;99.90
19898;DHT22;10111;50.814;4.572;2023-04-30T04:09:53;6.20;99.90
19898;DHT22;10111;50.814;4.572;2023-04-30T04:12:19;6.20;99.90
19898;DHT22;10111;50.814;4.572;2023-04-30T04:14:44;6.20;99.90
19898;DHT22;10111;50.814;4.572;2023-04-30T04:17:10;6.20;99.90
19898;DHT22;10111;50.814;4.572;2023-04-30T04:19:36;6.10;99.90
19898;DHT22;10111;50.814;4.572;2023-04-30T04:22:02;6.00;99.90
19898;DHT22;10111;50.814;4.572;2023-04-30T04:24:28;6.00;99.90
19898;DHT22;10111;50.814;4.572;2023-04-30T04:26:54;6.00;99.90
19898;DHT22;10111;50.814;4.572;2023-04-30T04:29:20;6.10;99.90
19898;DHT22;10111;50.814;4.572;2023-04-30T04:31:46;6.20;99.90
19898;DHT22;10111;50.814;4.572;2023-04-30T04:34:13;6.30;99.90
19898;DHT22;10111;50.814;4.572;2023-04-30T04:36:39;6.20;99.90
19898;DHT22;10111;50.814;4.572;2023-04-30T04:39:04;6.10;99.90
19898;DHT22;10111;50.814;4.572;2023-04-30T04:41:32;6.10;99.90
19898;DHT22;10111;50.814;4.572;2023-04-30T04:43:58;6.10;99.90
19898;DHT22;10111;50.814;4.572;2023-04-30T04:46:25;6.10;99.90
19898;DHT22;10111;50.814;4.572;2023-04-30T04:48:53;6.10;99.90
19898;DHT22;10111;50.814;4.572;2023-04-30T04:51:19;6.10;99.90
19898;DHT22;10111;50.814;4.572;2023-04-30T04:53:45;6.20;99.90
19898;DHT22;10111;50.814;4.572;2023-04-30T04:56:11;6.10;99.90
19898;DHT22;10111;50.814;4.572;2023-04-30T04:58:37;6.20;99.90
19898;DHT22;10111;50.814;4.572;2023-04-30T05:01:03;6.20;99.90
19898;DHT22;10111;50.814;4.572;2023-04-30T05:03:30;6.30;99.90
19898;DHT22;10111;50.814;4.572;2023-04-30T05:05:57;6.40;99.90
19898;DHT22;10111;50.814;4.572;2023-04-30T05:08:22;6.50;99.90
19898;DHT22;10111;50.814;4.572;2023-04-30T05:10:48;6.60;99.90
19898;DHT22;10111;50.814;4.572;2023-04-30T05:13:14;6.80;99.90
19898;DHT22;10111;50.814;4.572;2023-04-30T05:15:39;6.90;99.90
19898;DHT22;10111;50.814;4.572;2023-04-30T05:18:05;7.00;99.90
19898;DHT22;10111;50.814;4.572;2023-04-30T05:20:31;7.10;99.90
19898;DHT22;10111;50.814;4.572;2023-04-30T05:22:56;7.30;99.90
19898;DHT22;10111;50.814;4.572;2023-04-30T05:25:22;7.50;99.90
19898;DHT22;10111;50.814;4.572;2023-04-30T05:27:48;7.60;99.90
19898;DHT22;10111;50.814;4.572;2023-04-30T05:30:14;7.80;99.90
19898;DHT22;10111;50.814;4.572;2023-04-30T05:32:40;8.00;99.90
19898;DHT22;10111;50.814;4.572;2023-04-30T05:35:06;8.20;99.90
19898;DHT22;10111;50.814;4.572;2023-04-30T05:37:32;8.40;99.90
19898;DHT22;10111;50.814;4.572;2023-04-30T05:39:58;8.60;99.90
19898;DHT22;10111;50.814;4.572;2023-04-30T05:42:24;8.80;99.90
19898;DHT22;10111;50.814;4.572;2023-04-30T05:44:49;9.00;99.90
19898;DHT22;10111;50.814;4.572;2023-04-30T05:47:15;9.20;99.90
19898;DHT22;10111;50.814;4.572;2023-04-30T05:49:41;9.40;99.90
19898;DHT22;10111;50.814;4.572;2023-04-30T05:52:06;9.60;99.90
19898;DHT22;10111;50.814;4.572;2023-04-30T05:54:32;9.80;99.90
19898;DHT22;10111;50.814;4.572;2023-04-30T05:56:58;9.90;99.90
19898;DHT22;10111;50.814;4.572;2023-04-30T05:59:23;10.10;99.90
19898;DHT22;10111;50.814;4.572;2023-04-30T06:01:50;10.20;99.90
19898;DHT22;10111;50.814;4.572;2023-04-30T06:04:16;10.40;99.90
19898;DHT22;10111;50.814;4.572;2023-04-30T06:06:42;10.60;99.90
19898;DHT22;10111;50.814;4.572;2023-04-30T06:09:07;10.80;99.90
19898;DHT22;10111;50.814;4.572;2023-04-30T06:11:34;11.00;99.90
19898;DHT22;10111;50.814;4.572;2023-04-30T06:14:02;11.20;99.90
19898;DHT22;10111;50.814;4.572;2023-04-30T06:16:28;11.20;99.90
19898;DHT22;10111;50.814;4.572;2023-04-30T06:18:53;11.30;99.90
19898;DHT22;10111;50.814;4.572;2023-04-30T06:21:19;11.40;99.90
19898;DHT22;10111;50.814;4.572;2023-04-30T06:23:45;11.50;99.90
19898;DHT22;10111;50.814;4.572;2023-04-30T06:26:10;11.70;99.90
19898;DHT22;10111;50.814;4.572;2023-04-30T06:28:39;11.80;99.90
19898;DHT22;10111;50.814;4.572;2023-04-30T06:31:05;12.10;99.90
19898;DHT22;10111;50.814;4.572;2023-04-30T06:33:30;12.20;99.90
19898;DHT22;10111;50.814;4.572;2023-04-30T06:35:56;12.30;99.90
19898;DHT22;10111;50.814;4.572;2023-04-30T06:38:21;12.40;99.90
19898;DHT22;10111;50.814;4.572;2023-04-30T06:40:47;12.50;99.90
19898;DHT22;10111;50.814;4.572;2023-04-30T06:43:13;12.30;99.90
19898;DHT22;10111;50.814;4.572;2023-04-30T06:45:38;12.50;99.90
19898;DHT22;10111;50.814;4.572;2023-04-30T06:48:04;12.60;99.90
19898;DHT22;10111;50.814;4.572;2023-04-30T06:50:30;12.60;99.90
19898;DHT22;10111;50.814;4.572;2023-04-30T06:52:56;12.60;99.90
19898;DHT22;10111;50.814;4.572;2023-04-30T06:55:22;12.80;99.90
19898;DHT22;10111;50.814;4.572;2023-04-30T06:57:48;13.10;99.90
19898;DHT22;10111;50.814;4.572;2023-04-30T07:00:14;13.40;99.90
19898;DHT22;10111;50.814;4.572;2023-04-30T07:02:40;13.50;99.90
19898;DHT22;10111;50.814;4.572;2023-04-30T07:05:06;13.50;99.90
19898;DHT22;10111;50.814;4.572;2023-04-30T07:07:32;13.50;99.90
19898;DHT22;10111;50.814;4.572;2023-04-30T07:09:58;13.30;99.90
19898;DHT22;10111;50.814;4.572;2023-04-30T07:12:23;13.50;99.90
19898;DHT22;10111;50.814;4.572;2023-04-30T07:14:49;13.70;99.90
19898;DHT22;10111;50.814;4.572;2023-04-30T07:17:15;13.80;99.90
19898;DHT22;10111;50.814;4.572;2023-04-30T07:19:40;13.90;99.90
19898;DHT22;10111;50.814;4.572;2023-04-30T07:22:06;14.00;99.90
19898;DHT22;10111;50.814;4.572;2023-04-30T07:24:32;14.10;99.90
19898;DHT22;10111;50.814;4.572;2023-04-30T07:26:58;14.20;99.90
19898;DHT22;10111;50.814;4.572;2023-04-30T07:29:27;14.20;99.90
19898;DHT22;10111;50.814;4.572;2023-04-30T07:31:53;14.30;99.90
19898;DHT22;10111;50.814;4.572;2023-04-30T07:34:19;14.50;99.90
19898;DHT22;10111;50.814;4.572;2023-04-30T07:36:46;14.40;99.90
19898;DHT22;10111;50.814;4.572;2023-04-30T07:39:12;14.50;99.90
19898;DHT22;10111;50.814;4.572;2023-04-30T07:41:38;14.80;99.90
19898;DHT22;10111;50.814;4.572;2023-04-30T07:44:04;15.00;99.90
19898;DHT22;10111;50.814;4.572;2023-04-30T07:46:29;15.00;99.90
19898;DHT22;10111;50.814;4.572;2023-04-30T07:48:55;14.90;99.90
19898;DHT22;10111;50.814;4.572;2023-04-30T07:51:21;15.40;99.90
19898;DHT22;10111;50.814;4.572;2023-04-30T07:53:48;15.50;99.90
19898;DHT22;10111;50.814;4.572;2023-04-30T07:56:13;15.40;99.90
19898;DHT22;10111;50.814;4.572;2023-04-30T07:58:39;15.60;99.90
19898;DHT22;10111;50.814;4.572;2023-04-30T08:01:05;15.80;99.90
19898;DHT22;10111;50.814;4.572;2023-04-30T08:03:30;16.00;99.90
19898;DHT22;10111;50.814;4.572;2023-04-30T08:05:56;16.10;99.90
19898;DHT22;10111;50.814;4.572;2023-04-30T08:08:22;16.20;99.90
19898;DHT22;10111;50.814;4.572;2023-04-30T08:10:47;16.50;99.90
19898;DHT22;10111;50.814;4.572;2023-04-30T08:13:13;16.90;99.90
19898;DHT22;10111;50.814;4.572;2023-04-30T08:15:39;16.60;99.90
19898;DHT22;10111;50.814;4.572;2023-04-30T08:18:04;16.40;99.90
19898;DHT22;10111;50.814;4.572;2023-04-30T08:20:31;16.60;99.90
19898;DHT22;10111;50.814;4.572;2023-04-30T08:22:57;16.80;99.90
19898;DHT22;10111;50.814;4.572;2023-04-30T08:25:23;16.80;99.90
19898;DHT22;10111;50.814;4.572;2023-04-30T08:27:48;16.90;99.90
19898;DHT22;10111;50.814;4.572;2023-04-30T08:30:14;16.90;99.90
19898;DHT22;10111;50.814;4.572;2023-04-30T08:32:40;17.10;99.90
19898;DHT22;10111;50.814;4.572;2023-04-30T08:35:07;17.40;99.90
19898;DHT22;10111;50.814;4.572;2023-04-30T08:37:33;17.50;99.90
19898;DHT22;10111;50.814;4.572;2023-04-30T08:39:59;17.70;99.90
19898;DHT22;10111;50.814;4.572;2023-04-30T08:42:28;17.80;99.90
19898;DHT22;10111;50.814;4.572;2023-04-30T08:44:55;18.00;99.90
19898;DHT22;10111;50.814;4.572;2023-04-30T08:47:23;18.10;99.90
19898;DHT22;10111;50.814;4.572;2023-04-30T08:49:49;18.40;99.90
19898;DHT22;10111;50.814;4.572;2023-04-30T08:52:17;18.30;99.90
19898;DHT22;10111;50.814;4.572;2023-04-30T08:54:43;18.30;99.90
19898;DHT22;10111;50.814;4.572;2023-04-30T08:57:09;18.40;99.90
19898;DHT22;10111;50.814;4.572;2023-04-30T08:59:35;18.20;99.90
19898;DHT22;10111;50.814;4.572;2023-04-30T09:02:00;18.00;99.90
19898;DHT22;10111;50.814;4.572;2023-04-30T09:04:27;18.20;99.90
19898;DHT22;10111;50.814;4.572;2023-04-30T09:06:53;18.50;99.90
19898;DHT22;10111;50.814;4.572;2023-04-30T09:09:36;18.50;99.90
19898;DHT22;10111;50.814;4.572;2023-04-30T09:12:14;18.60;99.90
19898;DHT22;10111;50.814;4.572;2023-04-30T09:15:00;18.60;99.90
19898;DHT22;10111;50.814;4.572;2023-04-30T09:17:26;18.70;99.90
19898;DHT22;10111;50.814;4.572;2023-04-30T09:19:52;19.00;99.90
19898;DHT22;10111;50.814;4.572;2023-04-30T09:22:21;18.90;99.90
19898;DHT22;10111;50.814;4.572;2023-04-30T09:24:48;18.60;99.90
19898;DHT22;10111;50.814;4.572;2023-04-30T09:27:20;18.50;99.90
19898;DHT22;10111;50.814;4.572;2023-04-30T09:29:46;18.50;99.90
19898;DHT22;10111;50.814;4.572;2023-04-30T09:32:13;18.60;99.90
19898;DHT22;10111;50.814;4.572;2023-04-30T09:34:39;18.70;99.90
19898;DHT22;10111;50.814;4.572;2023-04-30T09:37:05;18.60;99.90
19898;DHT22;10111;50.814;4.572;2023-04-30T09:39:32;18.60;99.90
19898;DHT22;10111;50.814;4.572;2023-04-30T09:42:11;18.70;99.90
19898;DHT22;10111;50.814;4.572;2023-04-30T09:44:40;18.80;99.90
19898;DHT22;10111;50.814;4.572;2023-04-30T09:47:18;18.60;99.90
19898;DHT22;10111;50.814;4.572;2023-04-30T09:49:48;18.60;99.90
19898;DHT22;10111;50.814;4.572;2023-04-30T09:52:17;18.70;99.90
19898;DHT22;10111;50.814;4.572;2023-04-30T09:54:46;19.10;99.90
19898;DHT22;10111;50.814;4.572;2023-04-30T09:57:13;18.70;99.90
19898;DHT22;10111;50.814;4.572;2023-04-30T09:59:44;18.60;99.90
19898;DHT22;10111;50.814;4.572;2023-04-30T10:02:13;18.50;99.90
19898;DHT22;10111;50.814;4.572;2023-04-30T10:04:42;18.40;99.90
19898;DHT22;10111;50.814;4.572;2023-04-30T10:07:15;18.40;99.90
19898;DHT22;10111;50.814;4.572;2023-04-30T10:09:56;18.30;99.90
19898;DHT22;10111;50.814;4.572;2023-04-30T10:12:28;18.40;99.90
19898;DHT22;10111;50.814;4.572;2023-04-30T10:15:14;18.60;99.90
19898;DHT22;10111;50.814;4.572;2023-04-30T10:17:46;18.50;99.90
19898;DHT22;10111;50.814;4.572;2023-04-30T10:20:14;18.40;99.90
19898;DHT22;10111;50.814;4.572;2023-04-30T10:22:41;17.80;99.90
19898;DHT22;10111;50.814;4.572;2023-04-30T10:25:09;18.00;99.90
19898;DHT22;10111;50.814;4.572;2023-04-30T10:27:38;18.10;99.90
19898;DHT22;10111;50.814;4.572;2023-04-30T10:30:05;18.10;99.90
19898;DHT22;10111;50.814;4.572;2023-04-30T10:32:49;18.00;99.90
19898;DHT22;10111;50.814;4.572;2023-04-30T10:35:21;18.00;99.90
19898;DHT22;10111;50.814;4.572;2023-04-30T10:37:54;17.70;99.90
19898;DHT22;10111;50.814;4.572;2023-04-30T10:40:21;17.70;99.90
19898;DHT22;10111;50.814;4.572;2023-04-30T10:42:48;17.90;99.90
19898;DHT22;10111;50.814;4.572;2023-04-30T10:45:17;17.80;99.90
19898;DHT22;10111;50.814;4.572;2023-04-30T10:47:45;18.10;99.90
19898;DHT22;10111;50.814;4.572;2023-04-30T10:50:11;18.20;99.90
19898;DHT22;10111;50.814;4.572;2023-04-30T10:52:38;17.90;99.90
19898;DHT22;10111;50.814;4.572;2023-04-30T10:55:08;17.80;99.90
19898;DHT22;10111;50.814;4.572;2023-04-30T10:57:41;18.00;99.90
19898;DHT22;10111;50.814;4.572;2023-04-30T11:02:44;18.40;99.90
19898;DHT22;10111;50.814;4.572;2023-04-30T11:05:16;18.70;99.90
19898;DHT22;10111;50.814;4.572;2023-04-30T11:07:48;18.80;99.90
19898;DHT22;10111;50.814;4.572;2023-04-30T11:10:14;18.80;99.90
19898;DHT22;10111;50.814;4.572;2023-04-30T11:12:47;18.60;99.90
19898;DHT22;10111;50.814;4.572;2023-04-30T11:15:14;18.40;99.90
19898;DHT22;10111;50.814;4.572;2023-04-30T11:17:43;18.50;99.90
19898;DHT22;10111;50.814;4.572;2023-04-30T11:20:12;18.50;99.90
19898;DHT22;10111;50.814;4.572;2023-04-30T11:22:39;18.40;99.90
19898;DHT22;10111;50.814;4.572;2023-04-30T11:25:08;18.30;99.90
19898;DHT22;10111;50.814;4.572;2023-04-30T11:27:35;18.10;99.90
19898;DHT22;10111;50.814;4.572;2023-04-30T11:30:02;18.00;99.90
19898;DHT22;10111;50.814;4.572;2023-04-30T11:32:33;17.80;99.90
19898;DHT22;10111;50.814;4.572;2023-04-30T11:35:01;17.90;99.90
19898;DHT22;10111;50.814;4.572;2023-04-30T11:37:42;18.00;99.90
19898;DHT22;10111;50.814;4.572;2023-04-30T11:40:09;17.90;99.90
19898;DHT22;10111;50.814;4.572;2023-04-30T11:42:36;17.90;99.90
19898;DHT22;10111;50.814;4.572;2023-04-30T11:45:12;17.90;99.90
19898;DHT22;10111;50.814;4.572;2023-04-30T11:47:48;18.00;99.90
19898;DHT22;10111;50.814;4.572;2023-04-30T11:50:16;18.10;99.90
19898;DHT22;10111;50.814;4.572;2023-04-30T11:52:49;18.00;99.90
19898;DHT22;10111;50.814;4.572;2023-04-30T11:55:20;18.10;99.90
19898;DHT22;10111;50.814;4.572;2023-04-30T11:57:50;18.10;99.90
19898;DHT22;10111;50.814;4.572;2023-04-30T12:00:19;18.10;99.90
19898;DHT22;10111;50.814;4.572;2023-04-30T12:02:47;18.00;99.90
19898;DHT22;10111;50.814;4.572;2023-04-30T12:05:23;18.00;99.90
19898;DHT22;10111;50.814;4.572;2023-04-30T12:10:14;18.80;99.90
19898;DHT22;10111;50.814;4.572;2023-04-30T12:12:42;18.60;99.90
19898;DHT22;10111;50.814;4.572;2023-04-30T12:15:19;18.60;99.90
19898;DHT22;10111;50.814;4.572;2023-04-30T12:17:51;18.50;99.90
19898;DHT22;10111;50.814;4.572;2023-04-30T12:20:16;18.50;99.90
19898;DHT22;10111;50.814;4.572;2023-04-30T12:22:43;18.50;99.90
19898;DHT22;10111;50.814;4.572;2023-04-30T12:25:17;18.60;99.90
19898;DHT22;10111;50.814;4.572;2023-04-30T12:27:48;18.50;99.90
19898;DHT22;10111;50.814;4.572;2023-04-30T12:30:14;18.40;99.90
19898;DHT22;10111;50.814;4.572;2023-04-30T12:32:44;18.60;99.90
19898;DHT22;10111;50.814;4.572;2023-04-30T12:35:15;18.70;99.90
19898;DHT22;10111;50.814;4.572;2023-04-30T12:37:48;18.90;99.90
19898;DHT22;10111;50.814;4.572;2023-04-30T12:40:18;18.90;99.90
19898;DHT22;10111;50.814;4.572;2023-04-30T12:42:44;18.70;99.90
19898;DHT22;10111;50.814;4.572;2023-04-30T12:45:12;18.80;99.90
19898;DHT22;10111;50.814;4.572;2023-04-30T12:47:39;18.80;99.90
19898;DHT22;10111;50.814;4.572;2023-04-30T12:50:10;18.80;99.90
19898;DHT22;10111;50.814;4.572;2023-04-30T12:52:39;18.60;99.90
19898;DHT22;10111;50.814;4.572;2023-04-30T12:55:19;18.60;99.90
19898;DHT22;10111;50.814;4.572;2023-04-30T13:00:49;18.60;99.90
19898;DHT22;10111;50.814;4.572;2023-04-30T13:03:20;18.80;99.90
19898;DHT22;10111;50.814;4.572;2023-04-30T13:05:48;19.10;99.90
19898;DHT22;10111;50.814;4.572;2023-04-30T13:08:14;19.10;99.90
19898;DHT22;10111;50.814;4.572;2023-04-30T13:10:40;19.00;99.90
19898;DHT22;10111;50.814;4.572;2023-04-30T13:13:05;19.10;99.90
19898;DHT22;10111;50.814;4.572;2023-04-30T13:15:31;18.90;99.90
19898;DHT22;10111;50.814;4.572;2023-04-30T13:17:57;18.90;99.90
19898;DHT22;10111;50.814;4.572;2023-04-30T13:20:23;18.90;99.90
19898;DHT22;10111;50.814;4.572;2023-04-30T13:22:50;18.90;99.90
19898;DHT22;10111;50.814;4.572;2023-04-30T13:25:16;19.00;99.90
19898;DHT22;10111;50.814;4.572;2023-04-30T13:27:42;19.40;99.90
19898;DHT22;10111;50.814;4.572;2023-04-30T13:30:09;19.40;99.90
19898;DHT22;10111;50.814;4.572;2023-04-30T13:32:35;19.60;99.90
19898;DHT22;10111;50.814;4.572;2023-04-30T13:35:01;19.70;99.90
19898;DHT22;10111;50.814;4.572;2023-04-30T13:37:27;19.70;99.90
19898;DHT22;10111;50.814;4.572;2023-04-30T13:39:55;19.60;99.90
19898;DHT22;10111;50.814;4.572;2023-04-30T13:42:21;19.40;99.90
19898;DHT22;10111;50.814;4.572;2023-04-30T13:44:47;19.30;99.90
19898;DHT22;10111;50.814;4.572;2023-04-30T13:47:15;19.40;99.90
19898;DHT22;10111;50.814;4.572;2023-04-30T13:49:41;19.40;99.90
19898;DHT22;10111;50.814;4.572;2023-04-30T13:52:06;19.60;99.90
19898;DHT22;10111;50.814;4.572;2023-04-30T13:54:32;19.70;99.90
19898;DHT22;10111;50.814;4.572;2023-04-30T13:56:58;19.60;99.90
19898;DHT22;10111;50.814;4.572;2023-04-30T13:59:24;19.40;99.90
19898;DHT22;10111;50.814;4.572;2023-04-30T14:01:50;19.10;99.90
19898;DHT22;10111;50.814;4.572;2023-04-30T14:04:16;19.40;99.90
19898;DHT22;10111;50.814;4.572;2023-04-30T14:06:41;19.70;99.90
19898;DHT22;10111;50.814;4.572;2023-04-30T14:09:07;19.60;99.90
19898;DHT22;10111;50.814;4.572;2023-04-30T14:11:33;19.40;99.90
19898;DHT22;10111;50.814;4.572;2023-04-30T14:13:59;19.30;99.90
19898;DHT22;10111;50.814;4.572;2023-04-30T14:16:24;19.30;99.90
19898;DHT22;10111;50.814;4.572;2023-04-30T14:18:50;19.30;99.90
19898;DHT22;10111;50.814;4.572;2023-04-30T14:21:16;19.30;99.90
19898;DHT22;10111;50.814;4.572;2023-04-30T14:23:41;19.40;99.90
19898;DHT22;10111;50.814;4.572;2023-04-30T14:26:11;19.40;99.90
19898;DHT22;10111;50.814;4.572;2023-04-30T14:28:36;19.40;99.90
19898;DHT22;10111;50.814;4.572;2023-04-30T14:31:02;19.40;99.90
19898;DHT22;10111;50.814;4.572;2023-04-30T14:33:29;19.40;99.90
19898;DHT22;10111;50.814;4.572;2023-04-30T14:35:55;19.60;99.90
19898;DHT22;10111;50.814;4.572;2023-04-30T14:38:20;19.80;99.90
19898;DHT22;10111;50.814;4.572;2023-04-30T14:40:46;19.90;99.90
19898;DHT22;10111;50.814;4.572;2023-04-30T14:43:12;19.90;99.90
19898;DHT22;10111;50.814;4.572;2023-04-30T14:45:37;19.80;99.90
19898;DHT22;10111;50.814;4.572;2023-04-30T14:48:04;19.90;99.90
19898;DHT22;10111;50.814;4.572;2023-04-30T14:50:30;19.80;99.90
19898;DHT22;10111;50.814;4.572;2023-04-30T14:52:56;19.60;99.90
19898;DHT22;10111;50.814;4.572;2023-04-30T14:55:22;19.50;99.90
19898;DHT22;10111;50.814;4.572;2023-04-30T14:57:48;19.40;99.90
19898;DHT22;10111;50.814;4.572;2023-04-30T15:00:14;19.40;99.90
19898;DHT22;10111;50.814;4.572;2023-04-30T15:02:40;19.50;99.90
19898;DHT22;10111;50.814;4.572;2023-04-30T15:05:06;19.50;99.90
19898;DHT22;10111;50.814;4.572;2023-04-30T15:07:33;19.60;99.90
19898;DHT22;10111;50.814;4.572;2023-04-30T15:09:59;19.70;99.90
19898;DHT22;10111;50.814;4.572;2023-04-30T15:12:24;19.70;99.90
19898;DHT22;10111;50.814;4.572;2023-04-30T15:14:50;19.80;99.90
19898;DHT22;10111;50.814;4.572;2023-04-30T15:17:16;19.80;99.90
19898;DHT22;10111;50.814;4.572;2023-04-30T15:19:42;19.70;99.90
19898;DHT22;10111;50.814;4.572;2023-04-30T15:22:08;19.40;99.90
19898;DHT22;10111;50.814;4.572;2023-04-30T15:24:34;19.30;99.90
19898;DHT22;10111;50.814;4.572;2023-04-30T15:27:00;19.30;99.90
19898;DHT22;10111;50.814;4.572;2023-04-30T15:29:26;19.40;99.90
19898;DHT22;10111;50.814;4.572;2023-04-30T15:31:52;19.50;99.90
19898;DHT22;10111;50.814;4.572;2023-04-30T15:34:20;19.40;99.90
19898;DHT22;10111;50.814;4.572;2023-04-30T15:36:46;19.40;99.90
19898;DHT22;10111;50.814;4.572;2023-04-30T15:39:13;19.60;99.90
19898;DHT22;10111;50.814;4.572;2023-04-30T15:41:38;19.70;99.90
19898;DHT22;10111;50.814;4.572;2023-04-30T15:44:04;19.70;99.90
19898;DHT22;10111;50.814;4.572;2023-04-30T15:46:30;19.70;99.90
19898;DHT22;10111;50.814;4.572;2023-04-30T15:48:56;19.80;99.90
19898;DHT22;10111;50.814;4.572;2023-04-30T15:51:22;19.80;99.90
19898;DHT22;10111;50.814;4.572;2023-04-30T15:53:48;19.80;99.90
19898;DHT22;10111;50.814;4.572;2023-04-30T15:56:13;19.80;99.90
19898;DHT22;10111;50.814;4.572;2023-04-30T15:58:39;19.70;99.90
19898;DHT22;10111;50.814;4.572;2023-04-30T16:01:05;19.60;99.90
19898;DHT22;10111;50.814;4.572;2023-04-30T16:03:31;19.50;99.90
19898;DHT22;10111;50.814;4.572;2023-04-30T16:05:58;19.40;99.90
19898;DHT22;10111;50.814;4.572;2023-04-30T16:08:25;19.40;99.90